createdAt,value
2017-08-12T00:02:34.882Z,17.05
2017-08-12T00:07:41.347Z,17.03
2017-08-12T00:12:43.628Z,16.94
2017-08-12T00:17:45.996Z,16.92
2017-08-12T00:22:49.430Z,16.90
2017-08-12T00:27:56.582Z,16.87
2017-08-12T00:33:02.903Z,16.85
2017-08-12T00:38:08.322Z,16.84
2017-08-12T00:43:12.926Z,16.85
2017-08-12T00:48:17.624Z,16.92
2017-08-12T00:53:20.597Z,16.90
2017-08-12T00:58:23.610Z,16.91
2017-08-12T01:03:26.092Z,16.97
2017-08-12T01:08:28.831Z,17.03
2017-08-12T01:13:32.188Z,17.01
2017-08-12T01:18:34.437Z,17.08
2017-08-12T01:23:36.855Z,17.08
2017-08-12T01:28:38.990Z,17.08
2017-08-12T01:33:40.910Z,17.13
2017-08-12T01:38:43.532Z,17.11
2017-08-12T01:43:45.727Z,17.07
2017-08-12T01:48:49.030Z,17.07
2017-08-12T01:53:51.926Z,17.00
2017-08-12T01:58:53.863Z,17.00
2017-08-12T02:03:55.823Z,17.05
2017-08-12T02:08:57.845Z,17.08
2017-08-12T02:13:59.803Z,17.10
2017-08-12T02:19:01.727Z,17.07
2017-08-12T02:24:03.719Z,17.08
2017-08-12T02:29:05.639Z,17.09
2017-08-12T02:34:07.581Z,17.12
2017-08-12T02:39:09.528Z,17.10
2017-08-12T02:44:11.472Z,17.07
2017-08-12T02:49:13.458Z,17.13
2017-08-12T02:54:15.382Z,17.13
2017-08-12T02:59:17.379Z,17.11
2017-08-12T03:04:19.814Z,17.08
2017-08-12T03:09:22.534Z,17.13
2017-08-12T03:14:24.629Z,17.12
2017-08-12T03:19:27.073Z,17.10
2017-08-12T03:24:29.070Z,17.06
2017-08-12T03:29:31.751Z,17.03
2017-08-12T03:34:33.691Z,17.06
2017-08-12T03:39:36.418Z,17.05
2017-08-12T03:44:38.330Z,17.07
2017-08-12T03:49:40.297Z,17.17
2017-08-12T03:54:42.218Z,17.23
2017-08-12T03:59:44.466Z,17.24
2017-08-12T04:04:46.446Z,17.29
2017-08-12T04:09:48.439Z,17.22
2017-08-12T04:14:50.443Z,17.32
2017-08-12T04:19:52.775Z,17.34
2017-08-12T04:24:54.755Z,17.35
2017-08-12T04:29:56.755Z,17.29
2017-08-12T04:34:58.700Z,17.31
2017-08-12T04:40:03.266Z,17.33
2017-08-12T04:45:05.331Z,17.35
2017-08-12T04:50:08.128Z,17.40
2017-08-12T04:55:10.682Z,17.41
2017-08-12T05:00:13.931Z,17.37
2017-08-12T05:05:16.666Z,17.39
2017-08-12T05:10:18.671Z,17.28
2017-08-12T05:15:21.353Z,17.34
2017-08-12T05:20:23.557Z,17.31
2017-08-12T05:25:25.892Z,17.30
2017-08-12T05:30:29.083Z,17.27
2017-08-12T05:35:31.976Z,17.26
2017-08-12T05:40:36.404Z,17.19
2017-08-12T05:45:38.425Z,17.29
2017-08-12T05:50:40.384Z,17.35
2017-08-12T05:55:43.142Z,17.30
2017-08-12T06:00:46.520Z,17.34
2017-08-12T06:05:49.092Z,17.33
2017-08-12T06:10:51.091Z,17.38
2017-08-12T06:15:53.052Z,17.40
2017-08-12T06:20:54.995Z,17.38
2017-08-12T06:25:56.950Z,17.38
2017-08-12T06:30:58.920Z,17.31
2017-08-12T06:36:00.876Z,17.26
2017-08-12T06:41:03.616Z,17.24
2017-08-12T06:46:05.568Z,17.30
2017-08-12T06:51:07.518Z,17.21
2017-08-12T06:56:09.470Z,17.26
2017-08-12T07:01:12.209Z,17.38
2017-08-12T07:06:14.534Z,17.50
2017-08-12T07:11:17.052Z,17.65
2017-08-12T07:16:19.784Z,17.73
2017-08-12T07:21:21.955Z,17.78
2017-08-12T07:26:23.918Z,17.91
2017-08-12T07:31:25.993Z,17.91
2017-08-12T07:36:28.054Z,18.17
2017-08-12T07:41:30.009Z,18.33
2017-08-12T07:46:32.028Z,18.49
2017-08-12T07:51:35.005Z,18.55
2017-08-12T07:56:37.087Z,18.66
2017-08-12T08:01:39.834Z,18.74
2017-08-12T08:06:41.889Z,18.73
2017-08-12T08:11:43.981Z,18.77
2017-08-12T08:16:46.706Z,18.74
2017-08-12T08:21:48.673Z,18.74
2017-08-12T08:26:51.567Z,18.59
2017-08-12T08:31:53.739Z,18.64
2017-08-12T08:36:55.716Z,18.74
2017-08-12T08:41:57.675Z,18.90
2017-08-12T08:46:59.643Z,19.01
2017-08-12T08:52:01.581Z,19.00
2017-08-12T08:57:03.878Z,18.90
2017-08-12T09:02:06.007Z,18.83
2017-08-12T09:07:07.951Z,18.75
2017-08-12T09:12:09.927Z,18.82
2017-08-12T09:17:12.623Z,18.85
2017-08-12T09:22:14.597Z,18.86
2017-08-12T09:27:16.614Z,18.89
2017-08-12T09:32:19.264Z,18.95
2017-08-12T09:37:21.939Z,19.10
2017-08-12T09:42:23.934Z,19.09
2017-08-12T09:47:25.875Z,19.11
2017-08-12T09:52:27.910Z,18.99
2017-08-12T09:57:29.938Z,19.18
2017-08-12T10:02:31.886Z,19.18
2017-08-12T10:07:33.845Z,19.24
2017-08-12T10:12:35.887Z,19.22
2017-08-12T10:17:37.874Z,19.26
2017-08-12T10:22:39.859Z,19.27
2017-08-12T10:27:41.892Z,19.36
2017-08-12T10:32:43.849Z,19.45
2017-08-12T10:37:46.567Z,19.54
2017-08-12T10:42:48.552Z,19.55
2017-08-12T10:47:50.561Z,19.66
2017-08-12T10:52:52.618Z,19.73
2017-08-12T10:57:54.620Z,19.75
2017-08-12T11:02:56.611Z,19.78
2017-08-12T11:07:59.244Z,19.68
2017-08-12T11:13:01.251Z,19.75
2017-08-12T11:18:03.261Z,19.64
2017-08-12T11:23:05.185Z,19.52
2017-08-12T11:28:07.201Z,19.51
2017-08-12T11:33:09.133Z,19.53
2017-08-12T11:38:11.091Z,19.76
2017-08-12T11:43:13.826Z,19.85
2017-08-12T11:48:15.801Z,19.81
2017-08-12T11:53:17.765Z,19.76
2017-08-12T11:58:20.476Z,19.75
2017-08-12T12:03:22.439Z,19.79
2017-08-12T12:08:24.376Z,19.88
2017-08-12T12:13:26.387Z,19.79
2017-08-12T12:18:29.042Z,19.79
2017-08-12T12:23:31.142Z,19.85
2017-08-12T12:28:33.152Z,19.78
2017-08-12T12:33:35.813Z,20.03
2017-08-12T12:38:37.780Z,19.99
2017-08-12T12:43:39.761Z,19.92
2017-08-12T12:48:41.766Z,20.07
2017-08-12T12:53:43.727Z,20.03
2017-08-12T12:58:45.713Z,20.01
2017-08-12T13:03:47.713Z,19.93
2017-08-12T13:08:49.681Z,20.02
2017-08-12T13:13:51.706Z,20.09
2017-08-12T13:18:54.070Z,19.96
2017-08-12T13:23:56.026Z,20.16
2017-08-12T13:28:57.998Z,20.54
2017-08-12T13:33:59.987Z,20.89
2017-08-12T13:39:02.859Z,21.14
2017-08-12T13:44:12.499Z,21.02
2017-08-12T13:49:14.514Z,20.85
2017-08-12T13:54:16.587Z,20.90
2017-08-12T13:59:18.627Z,21.02
2017-08-12T14:04:21.385Z,21.07
2017-08-12T14:09:23.306Z,21.06
2017-08-12T14:14:25.325Z,21.23
2017-08-12T14:19:27.266Z,21.15
2017-08-12T14:24:29.283Z,21.59
2017-08-12T14:29:31.980Z,21.70
2017-08-12T14:34:33.926Z,21.45
2017-08-12T14:39:35.969Z,21.49
2017-08-12T14:44:37.930Z,21.55
2017-08-12T14:49:39.920Z,21.88
2017-08-12T14:54:41.845Z,22.22
2017-08-12T14:59:44.882Z,22.33
2017-08-12T15:04:46.937Z,22.44
2017-08-12T15:09:48.986Z,22.37
2017-08-12T15:14:51.023Z,22.33
2017-08-12T15:19:53.011Z,22.13
2017-08-12T15:24:54.956Z,22.30
2017-08-12T15:34:59.073Z,22.58
2017-08-12T15:40:01.081Z,22.53
2017-08-12T15:45:03.219Z,22.67
2017-08-12T15:50:05.146Z,22.82
2017-08-12T15:55:07.151Z,22.73
2017-08-12T16:00:09.115Z,22.64
2017-08-12T16:05:11.120Z,22.71
2017-08-12T16:10:13.128Z,22.58
2017-08-12T16:15:15.176Z,22.55
2017-08-12T16:20:17.943Z,22.64
2017-08-12T16:25:20.005Z,22.68
2017-08-12T16:30:22.719Z,23.08
2017-08-12T16:35:24.680Z,22.72
2017-08-12T16:40:26.687Z,22.63
2017-08-12T16:45:28.684Z,22.69
2017-08-12T16:50:30.636Z,22.58
2017-08-12T16:55:32.587Z,22.79
2017-08-12T17:00:34.592Z,22.82
2017-08-12T17:05:36.569Z,22.71
2017-08-12T17:10:38.569Z,22.38
2017-08-12T17:15:40.539Z,22.38
2017-08-12T17:20:43.596Z,22.20
2017-08-12T17:25:47.888Z,21.97
2017-08-12T17:30:50.003Z,21.71
2017-08-12T17:35:52.003Z,21.75
2017-08-12T17:40:53.924Z,21.71
2017-08-12T17:45:55.922Z,21.65
2017-08-12T17:50:58.660Z,21.61
2017-08-12T17:56:00.604Z,21.57
2017-08-12T18:01:02.628Z,21.52
2017-08-12T18:06:05.495Z,21.53
2017-08-12T18:11:07.594Z,21.49
2017-08-12T18:16:09.520Z,21.55
2017-08-12T18:21:11.465Z,21.63
2017-08-12T18:26:13.589Z,21.55
2017-08-12T18:31:15.718Z,21.37
2017-08-12T18:36:17.785Z,21.21
2017-08-12T18:41:22.340Z,21.18
2017-08-12T18:46:26.527Z,21.29
2017-08-12T18:51:28.479Z,21.24
2017-08-12T18:56:30.411Z,21.09
2017-08-12T19:01:32.919Z,21.01
2017-08-12T19:06:35.801Z,21.13
2017-08-12T19:11:38.828Z,21.16
2017-08-12T19:16:43.454Z,21.03
2017-08-12T19:21:48.044Z,21.07
2017-08-12T19:26:50.128Z,21.05
2017-08-12T19:31:52.109Z,21.01
2017-08-12T19:36:54.337Z,20.98
2017-08-12T19:41:57.025Z,20.83
2017-08-12T19:46:58.990Z,20.92
2017-08-12T19:52:01.028Z,20.94
2017-08-12T19:57:02.987Z,20.81
2017-08-12T20:02:05.015Z,20.77
2017-08-12T20:07:06.955Z,20.66
2017-08-12T20:12:09.001Z,20.56
2017-08-12T20:17:11.233Z,20.45
2017-08-12T20:22:13.310Z,20.25
2017-08-12T20:27:15.342Z,20.19
2017-08-12T20:32:17.616Z,20.13
2017-08-12T20:37:19.752Z,20.04
2017-08-12T20:42:21.721Z,20.07
2017-08-12T20:47:23.808Z,20.24
2017-08-12T20:52:25.768Z,20.35
2017-08-12T20:57:27.794Z,20.39
2017-08-12T21:02:29.771Z,20.42
2017-08-12T21:07:32.519Z,20.47
2017-08-12T21:12:34.584Z,20.44
2017-08-12T21:17:36.556Z,20.37
2017-08-12T21:22:39.503Z,20.28
2017-08-12T21:27:41.468Z,20.11
2017-08-12T21:32:44.156Z,20.11
2017-08-12T21:37:46.346Z,20.09
2017-08-12T21:42:49.095Z,20.02
2017-08-12T21:47:51.100Z,19.92
2017-08-12T21:52:53.198Z,19.89
2017-08-12T21:57:55.187Z,19.85
2017-08-12T22:02:58.259Z,19.90
2017-08-12T22:08:00.579Z,19.90
2017-08-12T22:13:03.007Z,19.86
2017-08-12T22:18:04.980Z,19.84
2017-08-12T22:23:06.899Z,19.79
2017-08-12T22:28:08.861Z,19.70
2017-08-12T22:33:11.352Z,19.72
2017-08-12T22:38:13.307Z,19.95
2017-08-12T22:43:15.278Z,20.02
2017-08-12T22:48:17.567Z,20.13
2017-08-12T22:53:19.789Z,20.15
2017-08-12T22:58:22.106Z,20.19
2017-08-12T23:03:24.102Z,20.18
2017-08-12T23:08:26.825Z,20.18
2017-08-12T23:13:28.821Z,20.09
2017-08-12T23:18:30.806Z,20.00
2017-08-12T23:23:32.844Z,19.93
2017-08-12T23:28:34.922Z,19.91
2017-08-12T23:33:36.858Z,19.89
2017-08-12T23:38:38.800Z,19.81
2017-08-12T23:43:40.747Z,19.82
2017-08-12T23:48:42.703Z,19.67
2017-08-12T23:53:44.648Z,19.68
2017-08-12T23:58:46.610Z,19.64
